KBDN

Details ICAO KBDN
Name BEND MUNI
Region United States
Timezone America/Los_Angeles (UTC-7.0)
Plans Departing 30
Arriving 34
Stats Elevation 3,456 ft / 1,053 m (AMSL)
Location 44.094561° -121.200221°
Runways 1
Magnetic Variation 14.636° E
Sunrise 2018-05-24 12:31:17 UTC / 2018-05-24 05:31:17 Local
Sunset 2018-05-25 03:34:55 UTC / 2018-05-24 20:34:55 Local
Advertisement - Login to hide

Runways

ID Width Length Bearing (true) Bearing (mag) Surface Threshold Offset Overrun Length
16 75 ft / 23 m 5,204 ft / 1,586 m 180.04° 165.40° Asphalt 0 ft / 0 m 0 ft / 0 m
34 75 ft / 23 m 5,204 ft / 1,586 m 0.04° 345.40° Asphalt 0 ft / 0 m 0 ft / 0 m

Map

Weather


0- 5 10 15 20 25 30 35+ Temperature / ° C

Clouds and Precipitation
Forecast for 2018-05-24 12:00 UTC. Updated an hour ago

Ground ~20,000 ft ~40,000 ft Winds

METAR

KBDN 241155Z AUTO 26005KT 10SM FEW110 15/10 A2999 RMK AO2

TAF

TAF KBDN 241120Z 2412/2512 32005KT P6SM FEW120 FM241600 22006KT P6SM SCT060 BKN100 FM242100 29008KT P6SM VCTS BKN050CB OVC080 FM250600 34005KT P6SM VCSH BKN040 BKN070

Frequencies

Recorded 134.42 MHz AWOS 3
Unicom 123.00 MHz CTAF/UNICOM
Warning: Do not use this data for real-world aviation or navigation. No guarantee of current accuracy is given.